Time;durP1;ratioP1;P1;durP2;ratioP2;P2;SDS_P1;SDS_P2;PMS_P1;PMS_P2;Temp;Humidity;BMP_temperature;BMP_pressure;BME280_temperature;BME280_humidity;BME280_pressure;Samples;Min_cycle;Max_cycle;Signal;HPM_P1;HPM_P2
2021/09/16 00:01:38;;;;;;;22.42;12.60;;;;;;;16.63;100.00;99257.50;1671070;85;21468;-68
2021/09/16 00:04:20;;;;;;;19.15;12.88;;;;;;;16.64;100.00;99254.80;1670566;85;21439;-69
2021/09/16 00:06:49;;;;;;;18.50;12.15;;;;;;;16.64;100.00;99262.78;1659145;85;20971;-68
2021/09/16 00:09:22;;;;;;;22.55;12.90;;;;;;;16.64;100.00;99260.13;1669184;85;21140;-68
2021/09/16 00:11:58;;;;;;;26.52;13.43;;;;;;;16.71;100.00;99259.98;1665672;85;20936;-68
2021/09/16 00:14:25;;;;;;;20.12;13.00;;;;;;;16.71;100.00;99258.64;1662639;85;21444;-68
2021/09/16 00:17:02;;;;;;;24.07;14.20;;;;;;;16.70;100.00;99256.44;1662557;85;21422;-68
2021/09/16 00:19:38;;;;;;;24.10;14.20;;;;;;;16.69;100.00;99256.03;1667409;85;21465;-68
2021/09/16 00:22:13;;;;;;;24.67;13.98;;;;;;;16.67;100.00;99251.20;1662669;85;21446;-69
2021/09/16 00:24:41;;;;;;;;;;;;;;;16.65;100.00;99254.34;1674970;85;21603;-69
2021/09/16 00:27:12;;;;;;;28.40;13.62;;;;;;;16.58;100.00;99255.43;1663989;85;20427;-68
2021/09/16 00:29:44;;;;;;;;;;;;;;;16.58;100.00;99255.43;1665705;85;21603;-68
2021/09/16 00:32:21;;;;;;;19.60;14.20;;;;;;;16.56;100.00;99256.80;1650402;86;20439;-68
2021/09/16 00:34:52;;;;;;;21.20;14.30;;;;;;;16.59;100.00;99250.06;1668539;85;21454;-68
2021/09/16 00:37:26;;;;;;;22.13;14.00;;;;;;;16.59;100.00;99245.19;1668889;85;21429;-68
2021/09/16 00:40:02;;;;;;;21.95;14.68;;;;;;;16.59;100.00;99249.19;1661775;85;20994;-68
2021/09/16 00:42:33;;;;;;;28.80;15.65;;;;;;;16.58;100.00;99246.11;1663012;84;20968;-68
2021/09/16 00:45:05;;;;;;;27.87;15.38;;;;;;;16.54;100.00;99246.63;1672741;85;20896;-68
2021/09/16 00:47:39;;;;;;;26.42;15.50;;;;;;;16.53;100.00;99246.21;1662450;85;21473;-68
2021/09/16 00:50:13;;;;;;;32.80;16.80;;;;;;;16.49;100.00;99250.33;1661767;85;21397;-68
2021/09/16 00:52:42;;;;;;;23.67;14.70;;;;;;;16.49;100.00;99250.33;1661884;85;20951;-67
2021/09/16 00:55:20;;;;;;;23.18;14.25;;;;;;;16.52;100.00;99257.78;1662482;84;21421;-68
2021/09/16 00:57:55;;;;;;;;;;;;;;;16.52;100.00;99257.78;1652701;85;21446;-68
2021/09/16 01:00:32;;;;;;;25.95;14.13;;;;;;;16.52;100.00;99255.11;1653765;85;21957;-68
2021/09/16 01:03:09;;;;;;;21.10;13.90;;;;;;;16.51;100.00;99259.16;1657634;85;21410;-67
2021/09/16 01:05:43;;;;;;;27.63;14.70;;;;;;;16.48;100.00;99251.25;1671642;85;21415;-68
2021/09/16 01:08:19;;;;;;;22.27;15.65;;;;;;;16.45;100.00;99256.66;1672285;85;21907;-69
2021/09/16 01:10:51;;;;;;;23.30;14.90;;;;;;;16.44;100.00;99253.59;1635133;86;21436;-68
2021/09/16 01:13:27;;;;;;;24.95;14.73;;;;;;;16.43;100.00;99249.17;1631392;86;21351;-68
2021/09/16 01:15:58;;;;;;;24.43;14.50;;;;;;;16.44;100.00;99245.14;1623743;88;21484;-69
2021/09/16 01:18:31;;;;;;;22.98;14.55;;;;;;;16.49;100.00;99249.00;1630786;86;20922;-70
2021/09/16 01:21:07;;;;;;;21.27;13.93;;;;;;;16.53;100.00;99250.66;1662193;85;21482;-69
2021/09/16 01:23:35;;;;;;;22.17;14.45;;;;;;;16.54;100.00;99253.28;1661911;84;26613;-69
2021/09/16 01:26:06;;;;;;;;;;;;;;;16.55;100.00;99249.70;1664619;85;20902;-68
2021/09/16 01:28:41;;;;;;;23.15;14.95;;;;;;;16.54;100.00;99249.28;1664522;84;20120;-69
2021/09/16 01:31:10;;;;;;;21.20;13.60;;;;;;;16.54;100.00;99255.94;1671871;85;21411;-69
2021/09/16 01:33:43;;;;;;;21.10;14.03;;;;;;;16.53;100.00;99252.00;1673741;85;21023;-69
2021/09/16 01:36:17;;;;;;;18.90;13.90;;;;;;;16.59;100.00;99251.84;1677491;85;20908;-68
2021/09/16 01:38:50;;;;;;;19.82;12.73;;;;;;;16.61;100.00;99254.88;1677374;85;21916;-69
2021/09/16 01:41:23;;;;;;;24.10;14.40;;;;;;;16.60;100.00;99250.48;1675435;84;21498;-70
2021/09/16 01:43:53;;;;;;;18.57;13.13;;;;;;;16.60;100.00;99249.14;1645605;85;20987;-69
2021/09/16 01:46:22;;;;;;;22.27;13.53;;;;;;;16.60;100.00;99249.60;1674816;85;21494;-69
2021/09/16 01:48:59;;;;;;;18.10;12.18;;;;;;;16.60;100.00;99250.94;1681781;85;20987;-71
2021/09/16 01:51:23;;;;;;;19.67;12.85;;;;;;;16.63;100.00;99242.86;1676084;85;21498;-71
2021/09/16 01:53:55;;;;;;;19.50;11.93;;;;;;;16.63;100.00;99242.86;1679345;84;20995;-71
2021/09/16 01:56:24;;;;;;;17.40;12.40;;;;;;;16.62;100.00;99248.64;1679386;84;20924;-70
2021/09/16 01:58:53;;;;;;;19.92;12.73;;;;;;;16.62;100.00;99249.97;1679350;84;20988;-69
2021/09/16 02:01:22;;;;;;;18.95;12.50;;;;;;;16.63;100.00;99250.84;1676211;85;21017;-69
2021/09/16 02:03:58;;;;;;;18.15;12.75;;;;;;;16.62;100.00;99253.97;1671180;84;21769;-69
2021/09/16 02:06:29;;;;;;;23.62;14.03;;;;;;;16.63;100.00;99245.52;1680799;85;21455;-70
2021/09/16 02:09:02;;;;;;;24.50;15.50;;;;;;;16.64;100.00;99246.80;1663962;85;21355;-70
2021/09/16 02:11:36;;;;;;;29.23;16.70;;;;;;;16.65;100.00;99244.59;1644142;85;21482;-70
2021/09/16 02:14:06;;;;;;;24.82;16.50;;;;;;;16.63;100.00;99246.39;1673020;85;20935;-70
2021/09/16 02:16:44;;;;;;;25.85;16.67;;;;;;;16.59;100.00;99242.53;1678772;84;21383;-70
2021/09/16 02:19:23;;;;;;;26.23;16.93;;;;;;;16.59;100.00;99242.53;1679490;85;20904;-71
2021/09/16 02:22:00;;;;;;;23.35;16.17;;;;;;;16.52;100.00;99229.81;1679698;84;21459;-70
2021/09/16 02:24:30;;;;;;;28.20;17.30;;;;;;;16.52;100.00;99229.81;1678538;85;21502;-70
2021/09/16 02:27:03;;;;;;;39.25;18.62;;;;;;;16.49;100.00;99235.23;1673214;84;20887;-71
2021/09/16 02:29:31;;;;;;;29.77;18.33;;;;;;;16.44;100.00;99230.95;1664974;84;21781;-71
2021/09/16 02:32:02;;;;;;;32.30;18.10;;;;;;;16.36;100.00;99238.70;1662173;85;20940;-71
2021/09/16 02:34:36;;;;;;;27.42;17.85;;;;;;;16.18;100.00;99242.34;1665405;85;21475;-72
2021/09/16 02:37:11;;;;;;;27.45;17.27;;;;;;;16.13;100.00;99241.59;1678347;84;21443;-71
2021/09/16 02:39:41;;;;;;;31.80;19.00;;;;;;;16.13;100.00;99241.59;1678484;84;20952;-71
2021/09/16 02:42:14;;;;;;;29.75;18.62;;;;;;;16.12;100.00;99241.17;1679755;85;21079;-70
2021/09/16 02:44:47;;;;;;;29.67;18.17;;;;;;;16.08;100.00;99243.01;1673965;84;20928;-69
2021/09/16 02:47:22;;;;;;;30.97;18.52;;;;;;;16.05;100.00;99241.30;1679930;84;21471;-70
2021/09/16 02:49:52;;;;;;;34.95;19.92;;;;;;;16.00;100.00;99237.89;1677539;84;21475;-70
2021/09/16 02:52:25;;;;;;;33.88;17.87;;;;;;;15.97;100.00;99236.64;1667663;85;21379;-70
2021/09/16 02:54:55;;;;;;;32.05;17.75;;;;;;;15.94;100.00;99239.39;1677441;85;21415;-71
2021/09/16 02:57:25;;;;;;;42.10;19.37;;;;;;;15.94;100.00;99236.73;1676950;84;21388;-71
2021/09/16 02:59:57;;;;;;;36.38;18.87;;;;;;;15.93;100.00;99240.76;1676269;85;21458;-70
2021/09/16 03:02:26;;;;;;;36.77;20.05;;;;;;;15.90;100.00;99241.72;1678280;84;20952;-70
2021/09/16 03:05:05;;;;;;;32.40;19.82;;;;;;;15.87;100.00;99239.13;1673847;84;21006;-70
2021/09/16 03:07:35;;;;;;;30.17;18.60;;;;;;;15.85;100.00;99236.97;1668374;85;21812;-70
2021/09/16 03:10:11;;;;;;;34.88;18.95;;;;;;;15.83;100.00;99232.15;1673839;85;21439;-70
2021/09/16 03:12:40;;;;;;;31.20;18.27;;;;;;;15.82;100.00;99233.52;1675028;84;21491;-70
2021/09/16 03:15:14;;;;;;;29.37;17.45;;;;;;;15.81;100.00;99227.33;1678835;84;21451;-71
2021/09/16 03:17:53;;;;;;;36.15;17.02;;;;;;;15.82;100.00;99224.20;1678104;83;21442;-70
2021/09/16 03:20:27;;;;;;;31.20;17.57;;;;;;;15.82;100.00;99230.86;1677726;85;21099;-70
2021/09/16 03:22:59;;;;;;;33.90;18.15;;;;;;;15.80;100.00;99228.23;1678491;84;29012;-71
2021/09/16 03:25:30;;;;;;;;;;;;;;;15.77;100.00;99230.98;1680763;84;21621;-69
2021/09/16 03:28:01;;;;;;;28.57;17.98;;;;;;;15.74;100.00;99227.94;1673786;85;20469;-64
2021/09/16 03:30:35;;;;;;;29.57;17.60;;;;;;;15.70;100.00;99230.27;1663041;85;22475;-65
2021/09/16 03:33:09;;;;;;;34.48;19.32;;;;;;;15.71;100.00;99235.12;1672811;85;21510;-65
2021/09/16 03:35:38;;;;;;;40.92;18.98;;;;;;;15.73;100.00;99231.97;1675631;85;20951;-68
2021/09/16 03:38:12;;;;;;;40.30;18.60;;;;;;;15.74;100.00;99227.94;1677872;84;21478;-70
2021/09/16 03:40:44;;;;;;;36.68;18.70;;;;;;;15.74;100.00;99230.59;1679352;84;21407;-70
2021/09/16 03:43:12;;;;;;;30.23;17.57;;;;;;;15.75;100.00;99228.81;1678849;84;21414;-69
2021/09/16 03:45:41;;;;;;;32.38;18.05;;;;;;;15.74;100.00;99230.59;1675890;85;21757;-69
2021/09/16 03:48:17;;;;;;;35.58;17.15;;;;;;;15.73;100.00;99230.64;1679387;85;20932;-74
2021/09/16 03:50:46;;;;;;;25.82;17.50;;;;;;;15.71;100.00;99233.34;1673052;85;20943;-73
2021/09/16 03:53:25;;;;;;;32.28;17.32;;;;;;;15.70;100.00;99231.59;1669612;85;21605;-73
2021/09/16 03:55:54;;;;;;;37.35;18.07;;;;;;;15.72;100.00;99237.74;1681216;85;20909;-71
2021/09/16 03:58:30;;;;;;;27.90;17.87;;;;;;;15.74;100.00;99240.36;1673080;85;21922;-70
2021/09/16 04:01:06;;;;;;;26.62;18.50;;;;;;;15.71;100.00;99239.98;1675312;85;20912;-72
2021/09/16 04:03:40;;;;;;;27.73;17.92;;;;;;;15.70;100.00;99242.23;1679674;84;20944;-66
2021/09/16 04:06:15;;;;;;;32.67;17.85;;;;;;;15.69;100.00;99247.13;1678547;85;20939;-64
2021/09/16 04:08:46;;;;;;;;;;;;;;;15.66;100.00;99251.20;1676930;84;21515;-64
2021/09/16 04:11:13;;;;;;;37.27;19.20;;;;;;;15.65;100.00;99249.45;1672081;85;21795;-64
2021/09/16 04:13:44;;;;;;;36.85;19.73;;;;;;;15.67;100.00;99250.74;1675855;85;20913;-65
2021/09/16 04:16:13;;;;;;;35.80;18.23;;;;;;;15.67;100.00;99258.27;1676774;85;20925;-65
2021/09/16 04:18:42;;;;;;;35.15;19.65;;;;;;;15.66;100.00;99256.52;1678018;85;20948;-64
2021/09/16 04:21:11;;;;;;;32.03;19.62;;;;;;;15.65;100.00;99268.06;1675727;85;21540;-64
2021/09/16 04:23:41;;;;;;;33.18;19.40;;;;;;;15.64;100.00;99267.64;1676369;84;21465;-65
2021/09/16 04:26:10;;;;;;;34.18;19.50;;;;;;;15.63;100.00;99259.70;1677879;85;20945;-65
2021/09/16 04:28:38;;;;;;;32.50;21.60;;;;;;;15.65;100.00;99259.22;1676573;85;20972;-65
2021/09/16 04:31:06;;;;;;;38.80;22.27;;;;;;;15.67;100.00;99256.94;1676301;85;21144;-65
2021/09/16 04:33:34;;;;;;;37.38;23.30;;;;;;;15.70;100.00;99259.52;1676281;85;20953;-64
2021/09/16 04:36:03;;;;;;;37.55;22.82;;;;;;;15.72;100.00;99260.35;1664359;85;21882;-65
2021/09/16 04:38:31;;;;;;;55.80;24.92;;;;;;;15.74;100.00;99259.86;1641869;86;20943;-64
2021/09/16 04:40:58;;;;;;;70.47;24.60;;;;;;;15.76;100.00;99254.95;1664310;84;20943;-65
2021/09/16 04:43:27;;;;;;;78.87;24.37;;;;;;;15.77;100.00;99260.23;1659983;85;20943;-64
2021/09/16 04:45:55;;;;;;;73.62;25.37;;;;;;;15.81;100.00;99261.03;1664451;84;20950;-65
2021/09/16 04:48:23;;;;;;;69.47;24.60;;;;;;;15.85;100.00;99255.59;1665072;84;21119;-65
2021/09/16 04:50:51;;;;;;;44.90;23.55;;;;;;;15.89;100.00;99266.57;1645073;85;21475;-64
2021/09/16 04:53:20;;;;;;;51.37;22.70;;;;;;;15.93;100.00;99267.36;1664783;84;20955;-64
2021/09/16 04:55:49;;;;;;;45.15;21.85;;;;;;;15.94;100.00;99267.33;1667040;84;20949;-65
2021/09/16 04:58:16;;;;;;;36.45;21.85;;;;;;;15.95;100.00;99269.07;1643927;85;21025;-65
2021/09/16 05:00:43;;;;;;;34.48;20.48;;;;;;;15.96;100.00;99266.83;1663364;85;21748;-65
2021/09/16 05:03:11;;;;;;;45.67;20.88;;;;;;;15.99;100.00;99265.88;1666333;85;20975;-65
2021/09/16 05:05:39;;;;;;;42.20;20.17;;;;;;;16.00;100.00;99267.62;1647258;85;21974;-65
2021/09/16 05:08:07;;;;;;;34.40;20.15;;;;;;;16.04;100.00;99263.50;1656131;84;21011;-64
2021/09/16 05:10:35;;;;;;;41.15;20.65;;;;;;;16.11;100.00;99270.03;1650685;86;20967;-64
2021/09/16 05:13:05;;;;;;;36.38;21.23;;;;;;;16.17;100.00;99269.86;1648483;85;20853;-64
2021/09/16 05:15:35;;;;;;;38.13;20.35;;;;;;;16.21;100.00;99267.53;1658261;84;20904;-65
2021/09/16 05:18:04;;;;;;;37.48;19.62;;;;;;;16.25;100.00;99266.08;1651896;85;20907;-64
2021/09/16 05:20:34;;;;;;;31.60;18.23;;;;;;;16.32;100.00;99262.80;1643311;86;20971;-65
2021/09/16 05:23:03;;;;;;;27.67;17.45;;;;;;;16.37;100.00;99262.20;1650533;86;20924;-64
2021/09/16 05:25:31;;;;;;;68.12;19.92;;;;;;;16.43;100.00;99259.37;1646654;85;21736;-64
2021/09/16 05:28:00;;;;;;;26.10;17.20;;;;;;;16.51;100.00;99257.36;1646939;85;20960;-65
2021/09/16 05:30:29;;;;;;;205.25;33.23;;;;;;;16.58;100.00;99263.42;1659278;86;20890;-64
2021/09/16 05:32:56;;;;;;;46.63;19.57;;;;;;;16.61;100.00;99260.67;1659202;84;20891;-65
2021/09/16 05:35:23;;;;;;;45.15;17.05;;;;;;;16.67;100.00;99260.06;1648641;84;21494;-65
2021/09/16 05:37:54;;;;;;;26.65;16.80;;;;;;;16.75;100.00;99261.17;1608246;88;21134;-65
2021/09/16 05:40:22;;;;;;;21.55;15.03;;;;;;;16.78;100.00;99261.08;1641829;86;20939;-64
2021/09/16 05:42:50;;;;;;;23.62;16.00;;;;;;;16.82;100.00;99261.41;1641617;86;21463;-64
2021/09/16 05:45:17;;;;;;;26.42;14.45;;;;;;;16.83;100.00;99256.48;1639813;86;20965;-64
2021/09/16 05:47:46;;;;;;;23.25;14.40;;;;;;;16.84;100.00;99256.91;1625327;86;21026;-64
2021/09/16 05:50:13;;;;;;;17.80;12.70;;;;;;;16.86;100.00;99251.06;1657172;85;21967;-64
2021/09/16 05:52:40;;;;;;;20.35;13.35;;;;;;;16.90;100.00;99255.84;1648349;86;20952;-64
2021/09/16 05:55:09;;;;;;;20.35;14.28;;;;;;;16.92;100.00;99253.55;1627574;87;20916;-64
2021/09/16 05:57:38;;;;;;;22.98;13.38;;;;;;;16.97;100.00;99255.61;1606495;89;21487;-65
2021/09/16 06:00:06;;;;;;;18.45;13.85;;;;;;;17.05;100.00;99253.20;1649429;86;21420;-64
2021/09/16 06:02:34;;;;;;;23.70;15.15;;;;;;;17.12;100.00;99258.30;1647684;86;21110;-65
2021/09/16 06:05:02;;;;;;;29.07;15.03;;;;;;;17.21;100.00;99259.81;1648687;86;21438;-63
2021/09/16 06:07:29;;;;;;;140.07;20.10;;;;;;;17.26;100.00;99256.08;1648484;87;20945;-64
2021/09/16 06:09:57;;;;;;;41.58;16.25;;;;;;;17.32;100.00;99260.34;1643208;85;20919;-65
2021/09/16 06:12:27;;;;;;;26.93;14.95;;;;;;;17.36;100.00;99257.98;1648396;85;21493;-66
2021/09/16 06:14:55;;;;;;;31.00;14.63;;;;;;;17.46;100.00;99254.56;1648690;86;21098;-65
2021/09/16 06:17:22;;;;;;;21.00;13.08;;;;;;;17.57;100.00;99255.98;1648459;85;20903;-65
2021/09/16 06:19:51;;;;;;;20.70;13.90;;;;;;;17.68;100.00;99253.46;1648767;85;20939;-65
2021/09/16 06:22:20;;;;;;;25.77;14.68;;;;;;;17.76;100.00;99250.95;1648466;85;21537;-65
2021/09/16 06:24:48;;;;;;;22.62;14.73;;;;;;;17.89;100.00;99251.41;1649305;85;21000;-61
2021/09/16 06:27:16;;;;;;;20.75;13.43;;;;;;;17.99;100.00;99250.19;1649912;85;21468;-62
2021/09/16 06:29:46;;;;;;;18.02;12.85;;;;;;;18.09;100.00;99254.28;1649739;85;20849;-62
2021/09/16 06:32:16;;;;;;;20.60;12.35;;;;;;;18.20;100.00;99260.58;1649979;85;20892;-61
2021/09/16 06:34:44;;;;;;;16.65;11.50;;;;;;;18.31;100.00;99256.20;1649923;85;20925;-62
2021/09/16 06:37:14;;;;;;;25.32;12.70;;;;;;;18.42;100.00;99260.69;1650033;86;21387;-61
2021/09/16 06:39:43;;;;;;;93.05;18.57;;;;;;;18.56;100.00;99263.76;1649972;86;21807;-61
2021/09/16 06:42:13;;;;;;;17.52;10.93;;;;;;;18.69;100.00;99257.53;1649860;86;20918;-62
2021/09/16 06:44:41;;;;;;;16.40;11.48;;;;;;;18.81;100.00;99257.06;1645296;87;21547;-62
2021/09/16 06:47:09;;;;;;;14.98;10.10;;;;;;;18.93;100.00;99261.11;1648307;85;20879;-63
2021/09/16 06:49:45;;;;;;;15.65;9.40;;;;;;;19.05;100.00;99259.30;1650099;85;20929;-62
2021/09/16 06:52:08;;;;;;;16.30;8.88;;;;;;;19.20;100.00;99269.39;1650504;84;21098;-63
2021/09/16 06:54:35;;;;;;;13.00;8.30;;;;;;;19.36;100.00;99275.88;1649884;85;21487;-63
2021/09/16 06:57:04;;;;;;;16.70;7.53;;;;;;;19.50;100.00;99272.21;1649620;85;21457;-64
2021/09/16 06:59:31;;;;;;;15.75;7.62;;;;;;;19.65;100.00;99269.87;1648211;85;21457;-64
2021/09/16 07:01:59;;;;;;;8.10;6.15;;;;;;;19.76;100.00;99272.98;1648013;85;20959;-64
2021/09/16 07:04:26;;;;;;;8.53;5.75;;;;;;;19.89;100.00;99277.38;1648016;87;21457;-65
2021/09/16 07:06:53;;;;;;;8.33;5.92;;;;;;;20.03;100.00;99271.84;1647819;85;20958;-64
2021/09/16 07:09:20;;;;;;;8.75;5.40;;;;;;;20.18;100.00;99273.00;1647738;85;20867;-63
2021/09/16 07:11:49;;;;;;;9.33;5.30;;;;;;;20.31;100.00;99267.97;1648060;85;20879;-65
2021/09/16 07:14:17;;;;;;;9.55;5.58;;;;;;;20.41;100.00;99279.63;1647944;86;20960;-65
2021/09/16 07:16:44;;;;;;;44.30;6.65;;;;;;;20.53;100.00;99277.34;1647842;85;21105;-65
2021/09/16 07:19:12;;;;;;;8.70;4.22;;;;;;;20.61;100.00;99279.20;1647880;85;20903;-65
2021/09/16 07:21:40;;;;;;;7.28;3.83;;;;;;;20.72;100.00;99275.09;1648198;85;20852;-65
2021/09/16 07:24:08;;;;;;;4.95;3.08;;;;;;;20.82;96.10;99277.39;1648435;85;20923;-66
2021/09/16 07:26:36;;;;;;;81.15;10.08;;;;;;;20.93;92.69;99273.27;1648210;85;20911;-65
2021/09/16 07:29:04;;;;;;;12.65;3.00;;;;;;;21.00;84.79;99273.86;1647995;85;21730;-67
2021/09/16 07:31:33;;;;;;;4.20;2.55;;;;;;;21.10;81.20;99271.14;1648294;85;20943;-67
2021/09/16 07:34:00;;;;;;;4.00;1.98;;;;;;;21.19;77.42;99279.23;1647914;85;20922;-65
2021/09/16 07:36:28;;;;;;;6.45;3.50;;;;;;;21.24;73.65;99275.41;1668221;85;21464;-65
2021/09/16 07:38:55;;;;;;;4.10;2.90;;;;;;;21.33;72.32;99272.33;1648238;86;21004;-65
2021/09/16 07:41:23;;;;;;;3.72;2.10;;;;;;;21.43;71.70;99275.44;1650557;85;21090;-66
2021/09/16 07:43:50;;;;;;;3.27;2.35;;;;;;;21.54;68.38;99274.44;1648155;86;20901;-65
2021/09/16 07:46:19;;;;;;;11.20;2.55;;;;;;;21.59;66.64;99270.19;1648456;87;20952;-65
2021/09/16 07:48:47;;;;;;;3.20;2.40;;;;;;;21.69;65.92;99268.78;1648116;87;20884;-66
2021/09/16 07:51:14;;;;;;;439.32;41.02;;;;;;;21.79;64.94;99275.95;1650609;85;20899;-66
2021/09/16 07:53:43;;;;;;;15.23;4.25;;;;;;;21.85;63.40;99279.19;1648158;86;20952;-65
2021/09/16 07:56:11;;;;;;;8.90;2.58;;;;;;;21.96;63.27;99277.31;1650500;85;20931;-66
2021/09/16 07:58:39;;;;;;;16.52;3.50;;;;;;;22.06;62.92;99261.63;1648224;86;20968;-66
2021/09/16 08:01:08;;;;;;;31.00;3.95;;;;;;;22.20;63.29;99269.37;1648192;86;20869;-66
2021/09/16 08:03:36;;;;;;;8.08;2.90;;;;;;;22.37;63.16;99269.00;1650607;85;20902;-66
2021/09/16 08:06:03;;;;;;;17.12;3.37;;;;;;;22.52;62.50;99270.41;1648369;87;21144;-66
2021/09/16 08:08:31;;;;;;;4.40;2.62;;;;;;;22.63;59.88;99265.80;1648154;86;21538;-65
2021/09/16 08:10:59;;;;;;;3.02;2.05;;;;;;;22.72;58.31;99271.19;1648344;86;21006;-66
2021/09/16 08:13:27;;;;;;;4.62;2.75;;;;;;;22.79;56.80;99272.60;1650470;85;20955;-66
2021/09/16 08:15:54;;;;;;;8.28;2.70;;;;;;;22.84;56.04;99263.84;1648206;87;21468;-66
2021/09/16 08:18:23;;;;;;;13.28;2.60;;;;;;;22.89;55.54;99268.49;1650553;87;21122;-65
2021/09/16 08:20:52;;;;;;;8.95;2.95;;;;;;;23.01;54.96;99263.78;1648398;86;20899;-66
2021/09/16 08:23:20;;;;;;;38.65;4.50;;;;;;;23.15;54.78;99268.40;1653427;86;20869;-66
2021/09/16 08:25:48;;;;;;;118.17;13.72;;;;;;;23.27;54.15;99266.88;1653604;86;20971;-66
2021/09/16 08:28:16;;;;;;;6.17;2.55;;;;;;;23.40;53.99;99263.88;1650454;86;20885;-67
2021/09/16 08:30:43;;;;;;;3.58;2.58;;;;;;;23.50;53.50;99265.09;1650514;85;21100;-67
2021/09/16 08:33:11;;;;;;;28.42;5.53;;;;;;;23.58;52.29;99257.95;1648151;87;20905;-67
2021/09/16 08:35:38;;;;;;;4.17;2.67;;;;;;;23.62;51.64;99255.00;1650096;85;20879;-67
2021/09/16 08:38:06;;;;;;;8.05;2.35;;;;;;;23.69;51.03;99256.89;1648138;86;20951;-65
2021/09/16 08:40:33;;;;;;;29.05;4.87;;;;;;;23.81;50.87;99256.17;1648403;86;21004;-66
2021/09/16 08:43:01;;;;;;;41.58;7.20;;;;;;;23.94;51.13;99251.80;1648121;86;21942;-65
2021/09/16 08:45:28;;;;;;;53.08;8.03;;;;;;;24.11;50.87;99253.49;1629747;87;21474;-67
2021/09/16 08:47:56;;;;;;;26.70;6.10;;;;;;;24.28;51.10;99246.67;1648195;86;20879;-67
2021/09/16 08:50:26;;;;;;;22.65;4.55;;;;;;;24.49;51.25;99246.70;1648301;86;20907;-67
2021/09/16 08:52:54;;;;;;;19.37;4.78;;;;;;;24.66;50.50;99245.69;1629378;86;20899;-62
2021/09/16 08:55:22;;;;;;;10.23;3.80;;;;;;;24.81;50.12;99246.56;1648369;86;21044;-66
2021/09/16 08:58:00;;;;;;;13.55;3.67;;;;;;;24.94;49.73;99236.72;1648134;86;38230;-65
2021/09/16 09:00:29;;;;;;;15.68;4.03;;;;;;;25.08;49.53;99246.22;1648136;86;21497;-67
2021/09/16 09:02:58;;;;;;;9.73;2.95;;;;;;;25.17;48.05;99240.72;1648005;86;21474;-67
2021/09/16 09:05:28;;;;;;;7.40;2.83;;;;;;;25.23;47.04;99240.32;1651244;85;20943;-63
2021/09/16 09:07:59;;;;;;;8.50;3.25;;;;;;;25.28;46.23;99240.89;1647575;86;21136;-64
2021/09/16 09:10:45;;;;;;;9.85;3.10;;;;;;;25.26;45.58;99244.17;1647963;86;20967;-66
2021/09/16 09:13:22;;;;;;;6.75;2.50;;;;;;;25.22;45.02;99241.28;1647906;86;20926;-65
2021/09/16 09:16:00;;;;;;;11.68;3.00;;;;;;;25.22;44.32;99233.67;1648209;86;20955;-63
2021/09/16 09:18:51;;;;;;;17.48;4.50;;;;;;;25.26;44.18;99232.02;1648955;85;21380;-63
2021/09/16 09:21:20;;;;;;;23.02;5.10;;;;;;;25.35;43.77;99229.20;1649565;85;21069;-65
2021/09/16 09:23:54;;;;;;;25.17;5.65;;;;;;;25.48;44.87;99226.56;1649428;85;20936;-64
2021/09/16 09:26:30;;;;;;;17.80;4.40;;;;;;;25.60;44.22;99230.70;1649648;85;20921;-64
2021/09/16 09:29:10;;;;;;;50.35;7.28;;;;;;;25.67;43.81;99233.89;1649127;85;21439;-62
2021/09/16 09:32:03;;;;;;;18.10;4.33;;;;;;;25.78;44.29;99237.23;1649053;85;21563;-64
2021/09/16 09:34:40;;;;;;;17.10;4.33;;;;;;;25.93;44.49;99230.30;1630436;87;21109;-63
2021/09/16 09:37:19;;;;;;;12.33;3.77;;;;;;;26.12;44.42;99231.30;1641243;85;20967;-63
2021/09/16 09:39:49;;;;;;;20.40;4.67;;;;;;;26.24;43.03;99233.16;1640728;85;20935;-63
2021/09/16 09:42:24;;;;;;;14.65;4.47;;;;;;;26.26;41.79;99232.56;1635947;86;21010;-63
2021/09/16 09:45:05;;;;;;;16.90;4.00;;;;;;;26.18;41.22;99236.28;1655023;85;20995;-62
2021/09/16 09:47:45;;;;;;;20.35;4.50;;;;;;;26.18;40.68;99225.47;1638058;85;21151;-62
2021/09/16 09:50:26;;;;;;;9.98;3.20;;;;;;;26.26;40.51;99227.64;1656525;86;21511;-62
2021/09/16 09:52:53;;;;;;;7.47;3.12;;;;;;;26.42;41.12;99220.71;1656343;86;21519;-62
2021/09/16 09:55:24;;;;;;;11.40;3.30;;;;;;;26.57;41.38;99215.12;1656523;85;20919;-63
2021/09/16 09:58:02;;;;;;;10.82;3.65;;;;;;;26.71;40.98;99211.43;1670610;84;20923;-62
2021/09/16 10:00:29;;;;;;;10.80;3.85;;;;;;;26.81;40.42;99214.34;1666310;85;21101;-63
2021/09/16 10:02:59;;;;;;;6.92;3.30;;;;;;;26.88;40.17;99214.28;1666080;85;20950;-63
2021/09/16 10:05:35;;;;;;;22.35;3.83;;;;;;;27.00;40.27;99212.11;1666468;84;20959;-63
2021/09/16 10:08:12;;;;;;;7.80;3.20;;;;;;;27.12;39.35;99214.41;1666052;84;21014;-63
2021/09/16 10:10:51;;;;;;;115.90;14.38;;;;;;;27.07;38.35;99213.88;1666536;85;21006;-63
2021/09/16 10:13:19;;;;;;;12.47;3.40;;;;;;;27.02;38.02;99214.21;1666246;85;21782;-63
2021/09/16 10:15:50;;;;;;;14.83;3.17;;;;;;;26.91;37.56;99208.64;1666389;86;20947;-62
2021/09/16 10:18:20;;;;;;;8.78;2.77;;;;;;;26.85;37.44;99214.02;1666202;86;20939;-62
2021/09/16 10:20:50;;;;;;;9.80;3.33;;;;;;;26.84;37.56;99210.06;1666289;85;21442;-63
2021/09/16 10:23:17;;;;;;;7.78;2.95;;;;;;;26.84;37.45;99210.06;1666215;86;20971;-63
2021/09/16 10:25:47;;;;;;;8.08;3.62;;;;;;;26.86;37.76;99213.04;1666223;86;21124;-63
2021/09/16 10:28:15;;;;;;;8.48;3.10;;;;;;;26.99;38.69;99202.74;1666154;86;20970;-62
2021/09/16 10:30:45;;;;;;;13.00;2.80;;;;;;;27.17;39.09;99204.10;1666256;86;21501;-62
2021/09/16 10:33:27;;;;;;;7.95;3.67;;;;;;;27.29;38.53;99204.06;1666146;85;21030;-63
2021/09/16 10:36:00;;;;;;;;;;;;;;;27.35;37.40;99207.30;1668061;86;21002;-64
2021/09/16 10:38:38;;;;;;;21.33;6.10;;;;;;;27.28;36.77;99198.27;1638806;87;21138;-64
2021/09/16 10:41:20;;;;;;;10.15;3.83;;;;;;;27.25;37.24;99198.50;1638324;86;20993;-63
2021/09/16 10:44:01;;;;;;;9.55;3.10;;;;;;;27.31;37.51;99199.89;1649833;85;21491;-64
2021/09/16 10:46:46;;;;;;;11.38;3.58;;;;;;;27.42;37.07;99199.09;1648913;85;21451;-63
2021/09/16 10:49:26;;;;;;;7.40;3.00;;;;;;;27.46;36.41;99201.48;1649447;85;21651;-65
2021/09/16 10:52:17;;;;;;;6.42;2.75;;;;;;;27.52;36.16;99194.25;1661440;84;21741;-63
2021/09/16 10:54:55;;;;;;;108.03;13.15;;;;;;;27.66;36.60;99193.73;1660937;84;21574;-63
2021/09/16 10:57:37;;;;;;;13.43;3.60;;;;;;;27.75;35.84;99188.48;1633658;86;21028;-63
2021/09/16 11:00:17;;;;;;;8.47;3.20;;;;;;;27.66;35.36;99185.61;1637637;87;21440;-63
2021/09/16 11:02:51;;;;;;;19.42;3.65;;;;;;;27.58;35.38;99189.73;1641849;87;21358;-62
2021/09/16 11:05:21;;;;;;;7.03;3.20;;;;;;;27.59;35.28;99186.04;1645313;87;22161;-64
2021/09/16 11:07:52;;;;;;;8.40;3.35;;;;;;;27.66;35.63;99172.05;1645560;87;20929;-63
2021/09/16 11:10:26;;;;;;;;;;;;;;;27.78;35.25;99178.77;1648746;85;21459;-63
2021/09/16 11:13:06;;;;;;;7.67;3.30;;;;;;;27.90;35.31;99175.60;1638210;86;20488;-63
2021/09/16 11:15:37;;;;;;;11.33;3.05;;;;;;;28.04;35.96;99165.08;1641810;87;20912;-63
2021/09/16 11:18:09;;;;;;;10.32;3.58;;;;;;;28.20;36.14;99166.96;1627725;87;21117;-63
2021/09/16 11:20:38;;;;;;;11.25;3.42;;;;;;;28.37;36.37;99163.81;1641965;85;21036;-63
2021/09/16 11:23:08;;;;;;;8.68;3.20;;;;;;;28.55;36.63;99164.23;1667378;84;21486;-63
2021/09/16 11:25:43;;;;;;;8.63;3.35;;;;;;;28.56;35.27;99160.53;1636145;86;21500;-62
2021/09/16 11:28:11;;;;;;;9.28;3.35;;;;;;;28.59;35.35;99161.65;1656505;85;21474;-62
2021/09/16 11:30:40;;;;;;;24.05;3.60;;;;;;;28.62;35.04;99157.33;1656655;85;22071;-62
2021/09/16 11:33:16;;;;;;;32.17;3.85;;;;;;;28.63;34.47;99152.77;1656261;85;20919;-63
2021/09/16 11:35:40;;;;;;;3.50;2.40;;;;;;;28.62;34.27;99148.33;1655835;85;21427;-63
2021/09/16 11:38:08;;;;;;;9.65;2.77;;;;;;;28.58;33.64;99142.28;1632672;86;20955;-63